Latest Weather Observations for Whyalla

IDS60801

Issued at 5:05 pm CDT Monday 24 November 2014 (issued every 30 minutes, with the page automatically refreshed every 10 minutes)

About weather observations | Map of weather stations | Latest weather observations for SA | Other Formats
Station Details ID: 018120 Name: WHYALLA AERO Lat: -33.05 Lon: 137.52 Height: 6.5 m
Data from the previous 72 hours. | See also: Recent months at Whyalla
Date/Time
CDT
Temp
°C
App
Temp
°C
Dew
Point
Rel
Hum
%
Delta-T
°C
Wind Press
QNH
hPa
Press
MSL
hPa
Rain
since 9 am
mm
Dir
 
Spd
km/h
Gust
km/h
Spd
kts
Gust
kts
24/05:00pm 20.4 12.4 10.5 53 5.4 S 43 57 23 31 1015.3 1015.2 0.0
24/04:52pm 20.0 12.8 10.7 55 5.1 S 39 57 21 31 1015.0 1014.9 0.0
24/04:30pm 20.2 12.1 10.6 54 5.2 S 44 57 24 31 1014.9 1014.8 0.0
24/04:00pm 20.5 13.2 11.4 56 5.0 S 41 54 22 29 1014.8 1014.7 0.0
24/03:42pm 21.8 15.0 11.8 53 5.6 S 39 57 21 31 1014.9 1014.8 0.0
24/03:30pm 21.0 14.2 11.9 56 5.1 S 39 52 21 28 1014.8 1014.7 0.0
24/03:00pm 21.1 13.7 12.5 58 4.9 S 43 54 23 29 1014.7 1014.6 0.0
24/02:30pm 21.4 14.6 12.0 55 5.3 S 39 52 21 28 1014.6 1014.5 0.0
24/02:00pm 21.4 15.0 13.3 60 4.6 S 39 56 21 30 1014.6 1014.5 0.0
24/01:30pm 20.9 15.3 13.4 62 4.3 S 35 46 19 25 1014.8 1014.7 0.0
24/01:17pm 22.4 16.6 14.0 59 4.9 S 37 56 20 30 1014.6 1014.5 0.0
24/01:00pm 23.2 17.7 13.7 55 5.5 S 35 50 19 27 1014.7 1014.6 0.0
24/12:30pm 22.4 17.1 13.2 56 5.3 S 33 43 18 23 1014.6 1014.5 0.0
24/12:00pm 22.9 18.4 13.7 56 5.3 SSE 30 39 16 21 1014.5 1014.4 0.0
24/11:30am 20.9 16.0 13.6 63 4.2 S 32 44 17 24 1014.3 1014.2 0.0
24/11:00am 21.2 16.8 14.1 64 4.1 S 30 43 16 23 1014.2 1014.1 0.0
24/10:30am 21.5 16.6 14.2 63 4.3 S 33 48 18 26 1014.0 1013.9 0.0
24/10:00am 20.6 15.5 13.6 64 4.0 S 33 44 18 24 1013.8 1013.7 0.0
24/09:30am 21.2 15.6 13.4 61 4.5 S 35 44 19 24 1013.8 1013.7 0.0
24/09:00am 21.1 14.9 12.8 59 4.7 S 37 44 20 24 1013.6 1013.5 0.0
24/08:30am 20.5 14.7 12.7 61 4.4 S 35 46 19 25 1013.3 1013.2 0.0
24/08:00am 20.4 14.8 13.4 64 4.0 SSW 35 46 19 25 1012.6 1012.5 0.0
24/07:30am 19.9 14.9 13.4 66 3.7 SSW 32 39 17 21 1012.0 1011.9 0.0
24/07:00am 19.0 14.9 12.7 67 3.5 SSW 26 33 14 18 1011.6 1011.5 0.0
24/06:30am 18.3 14.6 12.7 70 3.1 SSW 24 33 13 18 1011.3 1011.2 0.0
24/06:00am 18.1 13.8 13.2 73 2.8 SSW 28 43 15 23 1010.6 1010.5 0.0
24/05:30am 18.2 13.0 13.5 74 2.7 SSW 33 44 18 24 1009.5 1009.4 0.0
24/05:00am 18.5 14.9 14.2 76 2.5 SSW 26 35 14 19 1008.9 1008.8 0.0
24/04:30am 18.8 15.2 15.3 80 2.1 SSW 28 37 15 20 1007.4 1007.3 0.0
24/04:00am 19.1 15.2 15.4 79 2.2 SW 30 39 16 21 1006.9 1006.8 0.0
24/03:30am 19.6 15.7 14.4 72 3.0 SSW 28 35 15 19 1006.4 1006.3 0.0
24/03:00am 20.2 18.0 13.4 65 3.9 SW 17 24 9 13 1006.1 1006.0 0.0
24/02:30am 20.8 18.1 12.8 60 4.5 SSW 19 24 10 13 1006.0 1005.9 0.0
24/02:00am 21.2 19.3 13.1 60 4.6 SSW 15 20 8 11 1005.9 1005.8 0.0
24/01:30am 21.7 19.3 12.5 56 5.2 SSW 17 22 9 12 1006.3 1006.2 0.0
24/01:00am 22.3 20.1 12.0 52 5.8 SSW 15 19 8 10 1006.8 1006.7 0.0
24/12:30am 22.6 20.7 11.7 50 6.1 SW 13 17 7 9 1007.3 1007.2 0.0
24/12:00am 22.9 21.5 12.2 51 6.1 SW 11 13 6 7 1007.4 1007.3 0.0
 
Date/Time
CDT
Temp
°C
App
Temp
°C
Dew
Point
Rel
Hum
%
Delta-T
°C
Wind Press
QNH
hPa
Press
MSL
hPa
Rain
since 9 am
mm
Dir
 
Spd
km/h
Gust
km/h
Spd
kts
Gust
kts
23/11:30pm 22.5 22.0 12.7 54 5.6 WSW 7 11 4 6 1007.6 1007.5 0.0
23/11:00pm 22.6 22.1 12.8 54 5.6 W 7 13 4 7 1008.1 1008.0 0.0
23/10:30pm 22.1 21.1 13.5 58 5.0 W 11 13 6 7 1008.1 1008.0 0.0
23/10:00pm 22.6 22.5 13.9 58 5.1 W 7 11 4 6 1008.6 1008.5 0.0
23/09:30pm 22.7 23.4 15.5 64 4.3 SW 6 9 3 5 1008.1 1008.0 0.0
23/09:00pm 23.0 23.1 15.6 63 4.5 S 9 15 5 8 1007.1 1007.0 0.0
23/08:30pm 23.2 21.9 15.8 63 4.5 SSW 17 22 9 12 1006.8 1006.7 0.0
23/08:00pm 23.6 22.1 16.4 64 4.4 SSW 19 22 10 12 1006.6 1006.5 0.0
23/07:30pm 24.3 23.1 16.0 60 5.1 S 17 22 9 12 1006.4 1006.3 0.0
23/07:00pm 25.7 25.0 16.3 56 5.8 S 15 19 8 10 1006.2 1006.1 0.0
23/06:30pm 25.5 24.5 16.6 58 5.5 S 17 22 9 12 1006.1 1006.0 0.0
23/06:00pm 27.5 26.0 14.2 44 8.0 SSE 15 20 8 11 1005.8 1005.7 0.0
23/05:30pm 28.1 25.6 12.4 37 9.2 SE 17 24 9 13 1006.0 1005.9 0.0
23/05:00pm 28.0 25.2 13.1 39 8.8 SE 20 26 11 14 1006.3 1006.2 0.0
23/04:30pm 27.7 24.4 12.9 40 8.7 E 22 28 12 15 1007.1 1007.0 0.0
23/04:00pm 26.4 23.5 13.9 46 7.4 ESE 22 28 12 15 1007.5 1007.4 0.0
23/03:30pm 27.0 23.7 14.1 45 7.7 ENE 24 32 13 17 1007.7 1007.6 0.0
23/03:26pm 27.1 23.7 13.8 44 7.9 ENE 24 32 13 17 1008.0 1007.9 0.0
23/03:00pm 27.3 26.5 12.9 41 8.4 S 9 15 5 8 1010.1 1010.0 0.0
23/02:40pm 24.9 19.6 14.1 51 6.4 SW 35 56 19 30 1009.8 1009.7 0.0
23/02:36pm 24.3 18.7 15.5 58 5.3 SW 39 50 21 27 1008.7 1008.6 0.0
23/02:30pm 25.9 21.7 13.4 46 7.3 ENE 28 41 15 22 1007.1 1007.0 0.0
23/02:18pm 24.1 22.3 14.5 55 5.7 E 17 39 9 21 1008.9 1008.8 0.0
23/02:00pm 24.9 22.7 14.4 52 6.2 E 19 28 10 15 1011.1 1011.0 0.0
23/01:56pm 25.8 23.1 13.6 47 7.2 E 20 28 11 15 1009.4 1009.3 0.0
23/01:30pm 28.3 27.3 10.9 34 9.9 S 7 11 4 6 1011.4 1011.3 0.0
23/01:00pm 28.9 28.1 11.0 33 10.2 S 6 13 3 7 1010.6 1010.5 0.0
23/12:41pm 28.6 25.7 8.3 28 11.1 N 13 20 7 11 1010.0 1009.9 0.0
23/12:30pm 29.1 26.1 9.3 29 11.0 NNW 15 20 8 11 1012.1 1012.0 0.0
23/12:00pm 26.0 23.7 8.9 34 9.3 SW 11 20 6 11 1011.1 1011.0 0.0
23/11:30am 24.8 23.4 8.7 36 8.7 SW 6 9 3 5 1011.5 1011.4 0.0
23/11:00am 23.4 21.0 8.7 39 7.9 S 11 15 6 8 1011.3 1011.2 0.0
23/10:30am 22.2 20.8 9.7 45 6.8 SSE 7 9 4 5 1011.7 1011.6 0.0
23/10:00am 22.4 20.4 10.2 46 6.7 SSE 11 17 6 9 1011.0 1010.9 0.0
23/09:30am 21.5 20.5 12.4 56 5.1 S 9 13 5 7 1011.8 1011.7 0.0
23/09:00am 20.7 19.3 13.4 63 4.2 SE 13 19 7 10 1011.6 1011.5 0.0
23/08:30am 19.8 18.1 13.5 67 3.6 ESE 15 20 8 11 1011.7 1011.6 0.0
23/08:00am 19.3 18.6 14.3 73 2.9 E 11 17 6 9 1011.7 1011.6 0.0
23/07:30am 19.4 18.6 15.1 76 2.5 ESE 13 17 7 9 1011.5 1011.4 0.0
23/07:00am 18.6 17.6 14.7 78 2.3 SSE 13 17 7 9 1011.1 1011.0 0.0
23/06:30am 17.7 16.7 14.6 82 1.8 SSE 13 17 7 9 1011.1 1011.0 0.0
23/06:00am 17.3 16.2 14.4 83 1.7 SSE 13 19 7 10 1011.1 1011.0 0.0
23/05:30am 17.2 16.3 13.7 80 2.0 SSE 11 17 6 9 1011.2 1011.1 0.0
23/05:00am 15.3 14.6 13.3 88 1.1 SW 9 13 5 7 1011.5 1011.4 0.0
23/04:30am 15.3 14.9 13.1 87 1.2 SW 7 11 4 6 1011.8 1011.7 0.0
23/04:00am 15.9 15.3 13.6 86 1.3 SW 9 11 5 6 1011.5 1011.4 0.0
23/03:30am 16.2 15.5 13.3 83 1.6 SSW 9 11 5 6 1011.8 1011.7 0.0
23/03:00am 16.8 15.8 13.5 81 1.9 S 11 17 6 9 1012.1 1012.0 0.0
23/02:30am 16.8 15.7 13.1 79 2.1 SW 11 15 6 8 1012.0 1011.9 0.0
23/02:00am 18.4 16.2 14.5 78 2.3 S 19 24 10 13 1011.9 1011.8 0.0
23/01:30am 18.6 15.8 14.3 76 2.5 S 22 30 12 16 1012.0 1011.9 0.0
23/01:00am 18.8 15.3 13.4 71 3.1 S 24 32 13 17 1012.2 1012.1 0.0
23/12:30am 18.9 15.3 13.1 69 3.3 S 24 33 13 18 1012.1 1012.0 0.0
23/12:00am 19.1 15.1 13.1 68 3.4 S 26 32 14 17 1012.4 1012.3 0.0
 
Date/Time
CDT
Temp
°C
App
Temp
°C
Dew
Point
Rel
Hum
%
Delta-T
°C
Wind Press
QNH
hPa
Press
MSL
hPa
Rain
since 9 am
mm
Dir
 
Spd
km/h
Gust
km/h
Spd
kts
Gust
kts
22/11:30pm 19.2 15.7 13.4 69 3.3 S 24 33 13 18 1012.5 1012.4 0.0
22/11:00pm 19.5 14.9 13.4 68 3.5 S 30 39 16 21 1012.2 1012.1 0.0
22/10:30pm 19.7 15.7 14.1 70 3.2 S 28 37 15 20 1012.1 1012.0 0.0
22/10:00pm 20.1 15.2 13.6 66 3.7 S 32 43 17 23 1011.6 1011.5 0.0
22/09:30pm 20.3 15.4 13.7 66 3.8 S 32 43 17 23 1011.2 1011.1 0.0
22/09:00pm 20.4 15.5 14.3 68 3.5 S 33 46 18 25 1010.6 1010.5 0.0
22/08:30pm 20.8 15.8 14.0 65 3.9 S 33 48 18 26 1009.9 1009.8 0.0
22/08:00pm 21.1 16.5 15.0 68 3.6 S 33 48 18 26 1009.0 1008.9 0.0
22/07:30pm 21.6 16.4 16.6 73 3.0 S 39 54 21 29 1008.2 1008.1 0.0
22/07:10pm 22.2 17.6 17.1 73 3.1 S 37 56 20 30 1007.8 1007.7 0.0
22/07:00pm 22.6 17.6 17.1 71 3.4 S 39 50 21 27 1007.4 1007.3 0.0
22/06:30pm 24.2 19.6 16.2 61 4.9 S 35 46 19 25 1006.8 1006.7 0.0
22/06:00pm 25.6 21.2 15.6 54 6.1 S 33 46 18 25 1006.3 1006.2 0.0
22/05:30pm 25.6 20.3 16.4 56 5.7 S 39 50 21 27 1006.0 1005.9 0.0
22/05:00pm 26.2 21.1 15.9 53 6.3 S 37 54 20 29 1005.4 1005.3 0.0
22/04:30pm 27.1 20.9 14.8 47 7.4 S 41 57 22 31 1004.8 1004.7 0.0
22/04:00pm 27.9 22.2 15.2 46 7.7 S 39 59 21 32 1004.7 1004.6 0.0
22/03:53pm 27.4 21.3 15.1 47 7.5 S 41 59 22 32 1004.7 1004.6 0.0
22/03:30pm 27.6 21.5 16.2 49 7.1 S 43 56 23 30 1004.7 1004.6 0.0
22/03:00pm 27.8 23.2 17.0 51 6.8 S 37 59 20 32 1004.7 1004.6 0.0
22/02:56pm 30.4 26.8 17.1 44 8.4 S 32 59 17 32 1004.4 1004.3 0.0
22/02:30pm 30.7 25.6 10.6 29 11.5 SSE 28 39 15 21 1004.4 1004.3 0.0
22/02:00pm 30.8 25.3 10.7 29 11.5 S 30 41 16 22 1004.4 1004.3 0.0
22/01:30pm 30.0 25.7 12.0 33 10.5 SSE 26 33 14 18 1004.8 1004.7 0.0
22/01:00pm 30.1 25.9 9.6 28 11.5 SSE 22 30 12 16 1005.1 1005.0 0.0
22/12:30pm 29.2 24.4 10.3 31 10.7 S 26 33 14 18 1005.3 1005.2 0.0
22/12:00pm 28.2 23.5 13.3 40 8.8 S 30 43 16 23 1005.7 1005.6 0.0
22/11:30am 27.2 21.5 11.2 36 9.1 S 32 41 17 22 1006.1 1006.0 0.0
22/11:00am 26.0 21.2 14.5 49 6.9 S 33 43 18 23 1006.1 1006.0 0.0
22/10:30am 25.7 20.3 13.9 48 7.0 S 35 46 19 25 1006.1 1006.0 0.0
22/10:00am 25.9 21.7 15.6 53 6.3 S 32 43 17 23 1006.1 1006.0 0.0
22/09:30am 27.0 21.9 13.0 42 8.2 S 32 46 17 25 1005.5 1005.4 0.0
22/09:29am 27.7 23.5 13.6 42 8.4 S 28 46 15 25 1005.6 1005.5 0.0
22/09:00am 32.0 26.5 12.3 30 11.7 NNW 33 43 18 23 1005.2 1005.1 0.0
22/08:30am 30.8 27.4 11.2 30 11.4 NNW 20 28 11 15 1005.3 1005.2 0.0
22/08:28am 30.7 27.3 11.1 30 11.3 NNW 20 28 11 15 1005.3 1005.2 0.0
22/08:00am 25.7 23.9 12.2 43 7.8 S 13 19 7 10 1005.5 1005.4 0.0
22/07:30am 25.4 23.4 8.8 35 9.0 SSW 9 13 5 7 1005.4 1005.3 0.0
22/07:00am 23.8 21.0 7.0 34 8.7 E 11 26 6 14 1005.1 1005.0 0.0
22/06:30am 20.1 17.1 7.5 44 6.5 NNW 13 15 7 8 1004.7 1004.6 0.0
22/06:00am 18.6 15.6 7.7 49 5.6 NW 13 17 7 9 1004.7 1004.6 0.0
22/05:30am 18.9 15.5 7.7 48 5.7 NNW 15 17 8 9 1004.1 1004.0 0.0
22/05:00am 18.2 15.8 8.5 53 5.0 NNW 11 13 6 7 1004.1 1004.0 0.0
22/04:30am 18.2 15.8 8.7 54 4.9 NNW 11 13 6 7 1004.4 1004.3 0.0
22/04:00am 18.0 15.3 8.8 55 4.8 NNW 13 15 7 8 1004.6 1004.5 0.0
22/03:30am 17.6 15.7 9.0 57 4.5 NNW 9 11 5 6 1004.7 1004.6 0.0
22/03:00am 17.1 15.3 9.3 60 4.1 NNW 9 15 5 8 1005.0 1004.9 0.0
22/02:30am 17.9 15.7 9.5 58 4.4 NW 11 13 6 7 1005.5 1005.4 0.0
22/02:00am 18.2 15.9 9.0 55 4.8 WNW 11 15 6 8 1005.9 1005.8 0.0
22/01:30am 18.4 17.3 10.0 58 4.5 N 6 9 3 5 1006.3 1006.2 0.0
22/01:00am 18.4 16.8 10.3 59 4.3 NNW 9 13 5 7 1007.0 1006.9 0.0
22/12:30am 18.5 16.9 10.3 59 4.4 W 9 13 5 7 1007.9 1007.8 0.0
22/12:00am 18.9 17.7 11.7 63 4.0 WSW 9 11 5 6 1008.2 1008.1 0.0
 
Date/Time
CDT
Temp
°C
App
Temp
°C
Dew
Point
Rel
Hum
%
Delta-T
°C
Wind Press
QNH
hPa
Press
MSL
hPa
Rain
since 9 am
mm
Dir
 
Spd
km/h
Gust
km/h
Spd
kts
Gust
kts
21/11:30pm 20.6 20.8 11.8 57 4.9 NNE 2 6 1 3 1008.5 1008.4 0.0
21/11:00pm 22.2 20.8 11.0 49 6.2 ENE 9 11 5 6 1008.5 1008.4 0.0
21/10:30pm 23.9 21.8 11.2 44 7.1 NE 13 19 7 10 1008.4 1008.3 0.0
21/10:00pm 22.9 21.2 11.3 48 6.5 NE 11 13 6 7 1008.7 1008.6 0.0
21/09:30pm 21.6 20.3 13.8 61 4.5 ENE 13 15 7 8 1008.7 1008.6 0.0
21/09:00pm 21.7 21.8 14.4 63 4.3 E 7 9 4 5 1008.9 1008.8 0.0
21/08:30pm 22.5 21.6 13.6 57 5.2 E 11 13 6 7 1008.7 1008.6 0.0
21/08:00pm 24.1 23.0 12.1 47 6.8 E 9 11 5 6 1008.8 1008.7 0.0
21/07:30pm 25.2 23.1 9.9 38 8.4 ESE 11 15 6 8 1008.8 1008.7 0.0
21/07:00pm 26.2 23.3 8.2 32 9.7 E 13 17 7 9 1008.7 1008.6 0.0
21/06:30pm 27.4 22.8 3.8 22 11.9 E 17 22 9 12 1008.5 1008.4 0.0
21/06:00pm 27.7 22.7 1.2 18 12.7 E 17 20 9 11 1008.7 1008.6 0.0
21/05:30pm 27.7 22.4 2.0 19 12.5 E 19 22 10 12 1008.8 1008.7 0.0

Other Formats:

Comma delimited format used in spreadsheet applications
http://www.bom.gov.au/fwo/IDS60801/IDS60801.95664.axf

JavaScript Object Notation format (JSON) in row-major order
http://www.bom.gov.au/fwo/IDS60801/IDS60801.95664.json